Time;durP1;ratioP1;P1;durP2;ratioP2;P2;SDS_P1;SDS_P2;PMS_P1;PMS_P2;Temp;Humidity;BMP_temperature;BMP_pressure;BME280_temperature;BME280_humidity;BME280_pressure;Samples;Min_cycle;Max_cycle;Signal;HPM_P1;HPM_P2
2022/06/04 00:01:43;;;;;;;4.53;4.13;;;14.50;1.00;;;;;;5109971;28;20585;-68
2022/06/04 00:04:13;;;;;;;4.77;4.07;;;14.50;1.00;;;;;;5111212;28;20598;-68
2022/06/04 00:06:40;;;;;;;5.80;4.10;;;14.50;1.00;;;;;;5096997;28;20293;-68
2022/06/04 00:09:08;;;;;;;4.80;3.90;;;14.60;1.00;;;;;;5090083;28;20221;-68
2022/06/04 00:17:09;;;;;;;4.43;3.50;;;14.70;1.00;;;;;;5099074;28;20547;-68
2022/06/04 00:19:36;;;;;;;5.07;3.87;;;14.70;1.00;;;;;;5105766;28;20614;-68
2022/06/04 00:22:04;;;;;;;4.47;3.90;;;14.60;1.00;;;;;;5097433;28;20600;-68
2022/06/04 00:24:31;;;;;;;4.00;3.60;;;14.50;1.00;;;;;;5095743;28;20282;-68
2022/06/04 00:26:58;;;;;;;5.77;3.97;;;14.50;1.00;;;;;;5093732;28;20643;-68
2022/06/04 00:29:27;;;;;;;6.10;3.50;;;14.50;1.00;;;;;;5111668;28;20220;-68
2022/06/04 00:31:54;;;;;;;7.10;4.77;;;14.50;1.00;;;;;;5111154;28;20552;-68
2022/06/04 00:34:21;;;;;;;5.57;3.90;;;14.30;1.00;;;;;;5104557;28;20200;-68
2022/06/04 00:36:48;;;;;;;4.63;3.60;;;14.20;1.00;;;;;;5112423;28;20261;-68
2022/06/04 00:39:15;;;;;;;3.63;3.33;;;14.20;1.00;;;;;;5108448;28;20261;-68
2022/06/04 00:41:49;;;;;;;6.73;4.17;;;14.20;1.00;;;;;;5110150;27;20643;-68
2022/06/04 00:44:56;;;;;;;4.47;3.97;;;14.00;1.00;;;;;;5111417;28;20212;-68
2022/06/04 00:47:26;;;;;;;7.53;4.37;;;14.00;1.00;;;;;;5100417;28;20208;-68
2022/06/04 00:49:54;;;;;;;3.73;3.03;;;13.90;1.00;;;;;;5110848;28;20256;-68
2022/06/04 00:52:22;;;;;;;3.83;3.50;;;13.90;1.00;;;;;;5111212;28;20569;-68
2022/06/04 00:54:52;;;;;;;6.63;3.37;;;13.80;1.00;;;;;;5104087;28;20671;-68
2022/06/04 00:57:53;;;;;;;4.17;3.63;;;13.80;1.00;;;;;;5105202;28;20301;-68
2022/06/04 01:00:23;;;;;;;5.00;3.50;;;13.70;1.00;;;;;;5090412;28;20193;-68
2022/06/04 01:03:11;;;;;;;4.40;4.00;;;13.70;1.00;;;;;;5108744;28;20642;-68
2022/06/04 01:05:50;;;;;;;3.97;3.50;;;13.70;1.00;;;;;;5097616;28;20719;-68
2022/06/04 01:08:40;;;;;;;3.40;3.10;;;13.80;1.00;;;;;;5109327;28;20221;-68
2022/06/04 01:11:16;;;;;;;5.27;3.60;;;13.80;1.00;;;;;;5111162;28;20205;-68
2022/06/04 01:14:12;;;;;;;5.50;3.33;;;13.80;1.00;;;;;;5103638;28;20659;-68
2022/06/04 01:16:48;;;;;;;3.43;3.13;;;13.80;1.00;;;;;;5097368;28;20201;-68
2022/06/04 01:19:37;;;;;;;4.20;3.60;;;13.80;1.00;;;;;;5107638;28;20279;-68
2022/06/04 01:22:21;;;;;;;3.60;3.27;;;13.80;1.00;;;;;;5112116;27;20283;-68
2022/06/04 01:25:00;;;;;;;6.00;3.17;;;13.90;1.00;;;;;;5110200;28;20306;-68
2022/06/04 01:27:33;;;;;;;4.47;3.40;;;14.00;1.00;;;;;;5110814;28;20205;-68
2022/06/04 01:30:04;;;;;;;7.10;3.60;;;13.90;1.00;;;;;;5108276;28;20564;-68
2022/06/04 01:32:36;;;;;;;4.07;3.47;;;13.70;1.00;;;;;;5110516;28;20253;-68
2022/06/04 01:35:14;;;;;;;4.87;3.60;;;13.60;1.00;;;;;;5102666;28;20208;-68
2022/06/04 01:37:47;;;;;;;3.80;3.40;;;13.70;1.00;;;;;;5102922;28;20224;-68
2022/06/04 01:43:10;;;;;;;4.20;3.40;;;13.40;18.90;;;;;;5111533;28;20237;-68
2022/06/04 01:45:39;;;;;;;3.50;3.20;;;13.40;35.10;;;;;;5101296;28;20299;-68
2022/06/04 01:48:09;;;;;;;6.70;3.70;;;13.40;62.40;;;;;;5108159;28;20200;-68
2022/06/04 01:50:42;;;;;;;5.80;3.70;;;13.20;97.30;;;;;;5114633;28;20212;-68
2022/06/04 01:53:11;;;;;;;3.87;3.40;;;13.30;75.00;;;;;;5115071;28;20232;-68
2022/06/04 01:55:44;;;;;;;5.20;3.50;;;13.50;12.90;;;;;;5100913;28;20244;-68
2022/06/04 01:58:18;;;;;;;4.97;3.73;;;13.60;1.00;;;;;;5108586;28;20225;-68
2022/06/04 02:00:49;;;;;;;4.03;3.50;;;13.60;1.00;;;;;;5113250;28;20615;-68
2022/06/04 02:03:20;;;;;;;3.60;3.30;;;13.50;1.00;;;;;;5114867;28;20639;-68
2022/06/04 02:05:53;;;;;;;3.80;3.43;;;13.40;1.00;;;;;;5107984;28;20201;-68
2022/06/04 02:08:25;;;;;;;4.37;3.70;;;13.20;29.00;;;;;;5102234;28;20256;-68
2022/06/04 02:10:59;;;;;;;4.03;3.00;;;13.20;93.50;;;;;;5104065;28;20196;-68
2022/06/04 02:13:28;;;;;;;4.00;3.33;;;13.30;98.00;;;;;;5104235;28;20563;-68
2022/06/04 02:16:00;;;;;;;7.07;4.10;;;13.30;99.90;;;;;;5111582;28;20245;-68
2022/06/04 02:18:27;;;;;;;5.10;3.60;;;13.30;99.30;;;;;;5123839;27;20200;-68
2022/06/04 02:20:54;;;;;;;5.00;3.67;;;13.40;94.30;;;;;;5121078;27;20196;-68
2022/06/04 02:23:21;;;;;;;5.33;3.10;;;13.30;83.30;;;;;;5110418;28;20204;-68
2022/06/04 02:25:48;;;;;;;6.00;3.60;;;13.30;60.40;;;;;;5115276;28;20197;-69
2022/06/04 02:28:15;;;;;;;5.30;4.47;;;13.30;48.80;;;;;;5098544;28;20210;-68
2022/06/04 02:30:56;;;;;;;6.73;4.87;;;13.40;35.40;;;;;;5115075;28;20666;-68
2022/06/04 02:33:32;;;;;;;7.10;4.53;;;13.30;24.30;;;;;;5115640;28;20201;-68
2022/06/04 02:36:01;;;;;;;6.20;4.10;;;13.40;11.90;;;;;;5115638;28;20681;-68
2022/06/04 02:38:38;;;;;;;6.67;3.50;;;13.40;1.00;;;;;;5110994;27;20539;-68
2022/06/04 02:41:11;;;;;;;5.57;3.83;;;13.60;1.00;;;;;;5115249;27;20200;-68
2022/06/04 02:43:43;;;;;;;4.40;3.60;;;13.50;1.00;;;;;;5102936;28;20210;-68
2022/06/04 02:46:18;;;;;;;3.83;3.33;;;13.50;1.00;;;;;;5103411;28;20205;-68
2022/06/04 02:48:51;;;;;;;4.23;3.30;;;13.30;1.00;;;;;;5098172;28;20221;-68
2022/06/04 02:51:22;;;;;;;3.87;3.50;;;13.30;1.00;;;;;;5102384;28;20635;-68
2022/06/04 02:53:51;;;;;;;3.87;3.20;;;13.20;1.00;;;;;;5114452;28;20204;-68
2022/06/04 02:56:21;;;;;;;4.23;3.47;;;13.20;1.00;;;;;;5095040;28;20263;-68
2022/06/04 02:58:53;;;;;;;5.07;3.40;;;13.10;1.00;;;;;;5109459;28;20258;-68
2022/06/04 03:01:22;;;;;;;5.03;3.50;;;12.90;1.00;;;;;;5114827;28;20223;-68
2022/06/04 03:03:49;;;;;;;3.30;3.03;;;12.90;1.00;;;;;;5114707;28;20231;-68
2022/06/04 03:06:24;;;;;;;3.63;3.30;;;12.80;1.00;;;;;;5122047;27;20193;-68
2022/06/04 03:08:52;;;;;;;3.40;3.10;;;12.90;1.00;;;;;;5135348;27;20688;-68
2022/06/04 03:11:19;;;;;;;3.27;2.93;;;12.90;1.00;;;;;;5130672;27;20203;-68
2022/06/04 03:13:46;;;;;;;4.60;2.73;;;12.80;1.00;;;;;;5112029;28;20201;-68
2022/06/04 03:16:13;;;;;;;4.37;3.00;;;12.80;1.00;;;;;;5114152;28;20254;-68
2022/06/04 03:18:42;;;;;;;5.90;3.17;;;12.70;1.00;;;;;;5113863;28;20193;-68
2022/06/04 03:21:09;;;;;;;4.20;2.90;;;12.60;1.00;;;;;;5105904;28;20196;-68
2022/06/04 03:23:36;;;;;;;4.23;2.93;;;12.60;1.00;;;;;;5094751;28;20202;-68
2022/06/04 03:26:03;;;;;;;4.10;3.27;;;12.50;18.70;;;;;;5102833;28;20547;-70
2022/06/04 03:28:30;;;;;;;4.93;3.30;;;12.50;42.40;;;;;;5095329;28;20210;-72
2022/06/04 03:30:57;;;;;;;5.20;3.43;;;12.50;90.50;;;;;;5101168;28;20205;-72
2022/06/04 03:33:24;;;;;;;4.87;3.60;;;12.60;99.90;;;;;;5114247;28;20193;-71
2022/06/04 03:35:52;;;;;;;3.23;2.80;;;12.80;99.90;;;;;;5113893;28;20196;-71
2022/06/04 03:38:19;;;;;;;3.80;2.93;;;12.80;89.20;;;;;;5097085;28;20296;-71
2022/06/04 03:40:45;;;;;;;4.47;3.37;;;12.50;98.90;;;;;;5097785;28;20621;-71
2022/06/04 03:43:12;;;;;;;5.13;3.10;;;12.70;99.90;;;;;;5114190;27;20292;-71
2022/06/04 03:45:39;;;;;;;3.63;3.33;;;12.80;99.90;;;;;;5113434;28;20196;-71
2022/06/04 03:48:06;;;;;;;4.27;3.30;;;12.90;93.50;;;;;;5095213;28;20216;-71
2022/06/04 03:50:33;;;;;;;26.13;19.30;;;13.00;73.70;;;;;;5094739;28;20228;-71
2022/06/04 03:53:01;;;;;;;10.27;6.40;;;13.00;30.60;;;;;;5109395;28;20200;-71
2022/06/04 03:55:28;;;;;;;11.73;7.20;;;13.20;1.00;;;;;;5113857;28;20211;-71
2022/06/04 03:57:55;;;;;;;8.73;5.63;;;13.30;1.00;;;;;;5113975;28;20193;-71
2022/06/04 04:00:26;;;;;;;3.20;2.90;;;13.40;1.00;;;;;;5115477;27;20204;-71
2022/06/04 04:02:55;;;;;;;3.87;3.17;;;13.70;1.00;;;;;;5122377;27;20573;-72
2022/06/04 04:05:25;;;;;;;3.17;2.80;;;13.90;1.00;;;;;;5113717;28;20205;-72
2022/06/04 04:07:54;;;;;;;2.80;2.60;;;15.00;1.00;;;;;;5114105;28;20201;-72
2022/06/04 04:10:23;;;;;;;4.77;2.83;;;16.10;1.00;;;;;;5108274;28;20217;-72
2022/06/04 04:12:50;;;;;;;3.63;2.60;;;15.90;99.90;;;;;;5112914;28;20200;-71
2022/06/04 04:15:18;;;;;;;2.23;2.03;;;15.90;1.00;;;;;;5106440;28;20197;-71
2022/06/04 04:17:46;;;;;;;2.70;2.50;;;16.20;99.90;;;;;;5105176;28;20632;-71
2022/06/04 04:20:16;;;;;;;2.73;2.53;;;16.70;1.00;;;;;;5093916;28;20608;-71
2022/06/04 04:22:44;;;;;;;3.10;2.40;;;17.30;1.00;;;;;;5100456;28;20209;-71
2022/06/04 04:25:14;;;;;;;2.30;2.10;;;17.50;1.00;;;;;;5109151;28;20207;-71
2022/06/04 04:27:42;;;;;;;3.45;2.65;;;16.80;1.00;;;;;;5113248;28;20830;-71
2022/06/04 04:30:11;;;;;;;3.08;2.30;;;16.20;1.00;;;;;;5112546;28;20217;-71
2022/06/04 04:32:38;;;;;;;2.13;1.98;;;16.20;99.90;;;;;;5101024;28;20205;-71
2022/06/04 04:35:08;;;;;;;3.28;2.33;;;15.90;1.00;;;;;;5099601;28;20197;-71
2022/06/04 04:37:36;;;;;;;5.28;2.40;;;15.90;99.90;;;;;;5096450;28;20557;-72
2022/06/04 04:40:03;;;;;;;2.60;2.40;;;15.40;1.00;;;;;;5101482;28;20193;-72
2022/06/04 04:42:29;;;;;;;4.28;2.70;;;15.40;1.00;;;;;;5104718;28;20211;-71
2022/06/04 04:44:57;;;;;;;2.55;2.35;;;15.30;99.90;;;;;;5099428;28;20565;-72
2022/06/04 04:47:24;;;;;;;2.88;2.58;;;15.40;99.90;;;;;;5100314;28;20197;-72
2022/06/04 04:49:51;;;;;;;2.75;2.40;;;15.40;1.00;;;;;;5107867;28;20217;-72
2022/06/04 04:52:18;;;;;;;3.00;2.67;;;15.40;99.90;;;;;;5106618;28;20204;-71
2022/06/04 04:54:45;;;;;;;2.97;2.33;;;15.40;1.00;;;;;;5103480;28;20197;-71
2022/06/04 04:57:12;;;;;;;2.93;2.47;;;15.50;1.00;;;;;;5103071;28;20193;-71
2022/06/04 04:59:39;;;;;;;4.63;2.87;;;15.50;87.80;;;;;;5100226;28;20671;-72
2022/06/04 05:02:07;;;;;;;2.67;2.30;;;15.40;1.00;;;;;;5103439;28;20209;-72
2022/06/04 05:04:35;;;;;;;2.80;2.50;;;15.30;99.90;;;;;;5107554;28;20305;-71
2022/06/04 05:07:02;;;;;;;2.97;2.50;;;15.30;1.00;;;;;;5100881;28;20769;-72
2022/06/04 05:09:29;;;;;;;2.70;2.50;;;15.50;99.90;;;;;;5106034;28;20694;-71
2022/06/04 05:11:55;;;;;;;3.07;2.37;;;15.60;17.70;;;;;;5100857;28;20209;-71
2022/06/04 05:14:22;;;;;;;3.83;2.80;;;15.60;1.00;;;;;;5106061;28;20300;-71
2022/06/04 05:16:49;;;;;;;5.60;2.67;;;15.50;99.90;;;;;;5104051;28;20219;-71
2022/06/04 05:19:17;;;;;;;3.83;2.50;;;15.70;33.90;;;;;;5101246;28;20197;-71
2022/06/04 05:21:47;;;;;;;2.97;2.60;;;15.50;1.00;;;;;;5105168;28;20201;-71
2022/06/04 05:24:19;;;;;;;3.00;2.70;;;15.50;1.00;;;;;;5099448;28;20227;-71
2022/06/04 05:26:46;;;;;;;3.27;2.77;;;15.50;1.00;;;;;;5099970;28;20201;-71
2022/06/04 05:29:13;;;;;;;3.63;2.57;;;15.60;1.00;;;;;;5103504;28;20201;-71
2022/06/04 05:31:40;;;;;;;4.63;2.50;;;15.90;99.90;;;;;;5097880;28;20208;-71
2022/06/04 05:34:07;;;;;;;5.43;3.27;;;15.60;1.00;;;;;;5101282;28;20201;-71
2022/06/04 05:36:36;;;;;;;3.20;2.90;;;15.40;1.00;;;;;;5099280;28;20198;-70
2022/06/04 05:39:04;;;;;;;3.87;2.77;;;15.50;99.90;;;;;;5104702;28;20201;-70
2022/06/04 05:41:30;;;;;;;2.93;2.67;;;15.80;1.00;;;;;;5096917;28;20284;-71
2022/06/04 05:43:57;;;;;;;4.57;2.80;;;16.00;99.90;;;;;;5103011;28;20197;-71
2022/06/04 05:46:24;;;;;;;3.90;2.80;;;16.00;99.90;;;;;;5098785;28;20205;-71
2022/06/04 05:48:51;;;;;;;2.90;2.70;;;16.00;99.90;;;;;;5099170;28;20211;-71
2022/06/04 05:51:20;;;;;;;5.93;2.90;;;16.00;99.90;;;;;;5099205;28;20705;-71
2022/06/04 05:53:49;;;;;;;4.10;3.10;;;15.80;1.00;;;;;;5106664;28;20197;-72
2022/06/04 05:56:18;;;;;;;3.10;2.80;;;15.90;1.00;;;;;;5101627;28;20193;-72
2022/06/04 05:58:47;;;;;;;5.23;2.90;;;15.70;1.00;;;;;;5101454;28;20209;-72
2022/06/04 06:01:14;;;;;;;3.13;2.60;;;15.80;99.90;;;;;;5103479;28;20614;-71
2022/06/04 06:03:42;;;;;;;2.77;2.57;;;15.60;1.00;;;;;;5103252;28;20201;-72
2022/06/04 06:06:13;;;;;;;2.80;2.37;;;15.60;1.00;;;;;;5104150;28;20201;-71
2022/06/04 06:08:40;;;;;;;2.70;2.43;;;15.50;1.00;;;;;;5097752;28;20198;-71
2022/06/04 06:11:09;;;;;;;3.27;2.60;;;15.40;32.00;;;;;;5100996;28;20227;-71
2022/06/04 06:13:36;;;;;;;3.17;2.80;;;15.60;29.40;;;;;;5103974;28;20449;-71
2022/06/04 06:16:07;;;;;;;2.50;2.33;;;15.70;1.00;;;;;;5096224;28;20221;-71
2022/06/04 06:18:35;;;;;;;2.83;2.53;;;15.70;99.90;;;;;;5102102;28;20201;-71
2022/06/04 06:21:06;;;;;;;2.93;2.70;;;15.60;99.90;;;;;;5101294;28;20224;-72
2022/06/04 06:23:33;;;;;;;2.77;2.13;;;15.60;1.00;;;;;;5099406;28;20672;-72
2022/06/04 06:26:05;;;;;;;2.63;2.30;;;15.70;1.00;;;;;;5101267;28;20650;-72
2022/06/04 06:28:34;;;;;;;2.23;2.03;;;15.90;1.00;;;;;;5100442;28;20237;-72
2022/06/04 06:31:01;;;;;;;3.37;2.37;;;15.90;1.00;;;;;;5104700;28;20287;-72
2022/06/04 06:33:28;;;;;;;2.77;2.53;;;16.00;1.00;;;;;;5107504;28;20198;-72
2022/06/04 06:35:59;;;;;;;2.07;1.93;;;16.20;1.00;;;;;;5105307;28;20197;-71
2022/06/04 06:38:26;;;;;;;3.57;2.33;;;16.30;1.00;;;;;;5104348;28;20201;-71
2022/06/04 06:40:53;;;;;;;3.40;2.40;;;16.00;1.00;;;;;;5106213;28;20558;-71
2022/06/04 06:43:20;;;;;;;2.40;2.20;;;16.20;63.60;;;;;;5103099;28;20572;-72
2022/06/04 06:45:49;;;;;;;2.67;2.43;;;16.20;1.00;;;;;;5108712;27;20208;-71
2022/06/04 06:48:16;;;;;;;2.90;2.60;;;16.40;1.00;;;;;;5105551;28;20205;-70
2022/06/04 06:50:43;;;;;;;3.30;2.40;;;16.50;99.90;;;;;;5099861;28;20240;-70
2022/06/04 06:53:10;;;;;;;3.23;2.30;;;16.50;99.90;;;;;;5105435;28;20204;-70
2022/06/04 06:55:37;;;;;;;2.40;2.20;;;16.50;1.00;;;;;;5108660;28;20205;-70
2022/06/04 06:58:04;;;;;;;4.17;2.60;;;16.70;1.00;;;;;;5104510;27;20622;-70
2022/06/04 07:00:31;;;;;;;3.73;2.53;;;16.70;1.00;;;;;;5100796;28;20196;-70
2022/06/04 07:02:59;;;;;;;3.50;2.60;;;16.50;99.90;;;;;;5103263;28;20362;-71
2022/06/04 07:05:26;;;;;;;2.77;2.20;;;16.50;99.90;;;;;;5103379;28;20198;-71
2022/06/04 07:07:53;;;;;;;2.70;2.30;;;16.40;7.20;;;;;;5100907;28;20209;-71
2022/06/04 07:10:20;;;;;;;3.47;2.60;;;16.60;99.90;;;;;;5108759;28;20679;-71
2022/06/04 07:12:46;;;;;;;2.43;2.07;;;16.70;1.00;;;;;;5101072;28;20193;-70
2022/06/04 07:15:13;;;;;;;3.30;2.50;;;16.70;1.00;;;;;;5106925;28;20208;-71
2022/06/04 07:17:40;;;;;;;2.50;2.23;;;17.00;1.00;;;;;;5104019;28;20197;-71
2022/06/04 07:20:09;;;;;;;2.40;2.20;;;17.10;38.50;;;;;;5099979;28;20189;-71
2022/06/04 07:22:36;;;;;;;2.20;2.00;;;17.20;1.00;;;;;;5100049;28;20206;-71
2022/06/04 07:25:03;;;;;;;1.98;1.88;;;17.00;1.00;;;;;;5102809;27;20652;-71
2022/06/04 07:27:30;;;;;;;2.63;2.03;;;17.20;1.00;;;;;;5097189;28;20198;-71
2022/06/04 07:29:57;;;;;;;2.25;1.98;;;17.10;1.00;;;;;;5103679;27;20208;-71
2022/06/04 07:32:24;;;;;;;3.50;2.30;;;17.30;1.00;;;;;;5099570;28;20204;-71
2022/06/04 07:34:51;;;;;;;2.30;2.10;;;17.30;1.00;;;;;;5098021;28;20725;-71
2022/06/04 07:37:19;;;;;;;2.30;2.13;;;17.30;1.00;;;;;;5102712;28;20193;-71
2022/06/04 07:39:46;;;;;;;2.15;1.85;;;17.30;1.00;;;;;;5102993;28;20288;-70
2022/06/04 07:42:12;;;;;;;2.30;2.10;;;17.40;1.00;;;;;;5111641;27;20670;-71
2022/06/04 07:44:39;;;;;;;3.65;2.33;;;17.60;1.00;;;;;;5104639;28;20201;-71
2022/06/04 07:47:06;;;;;;;1.88;1.67;;;17.50;1.00;;;;;;5104198;28;20399;-71
2022/06/04 07:49:34;;;;;;;2.88;1.92;;;17.60;1.00;;;;;;5097730;28;20194;-71
2022/06/04 07:52:00;;;;;;;5.03;2.10;;;17.60;1.00;;;;;;5105373;27;20243;-71
2022/06/04 07:54:30;;;;;;;2.42;2.25;;;17.80;1.00;;;;;;5104940;28;20201;-71
2022/06/04 07:56:57;;;;;;;2.90;2.13;;;18.00;1.00;;;;;;5106498;27;20200;-71
2022/06/04 07:59:26;;;;;;;2.20;2.10;;;17.80;1.00;;;;;;5100470;28;20655;-71
2022/06/04 08:01:53;;;;;;;2.38;2.17;;;17.90;1.00;;;;;;5107206;27;20249;-71
2022/06/04 08:04:20;;;;;;;2.30;2.10;;;18.00;1.00;;;;;;5103701;28;20207;-71
2022/06/04 08:06:46;;;;;;;1.75;1.65;;;17.90;1.00;;;;;;5102156;28;20194;-71
2022/06/04 08:09:13;;;;;;;2.42;2.22;;;18.10;1.00;;;;;;5102692;28;20211;-71
2022/06/04 08:11:42;;;;;;;2.38;2.17;;;18.00;1.00;;;;;;5099496;28;20222;-71
2022/06/04 08:14:13;;;;;;;2.75;2.13;;;18.10;1.00;;;;;;5104975;28;20217;-71
2022/06/04 08:16:42;;;;;;;2.03;1.90;;;18.20;1.00;;;;;;5100493;27;20194;-71
2022/06/04 08:19:09;;;;;;;2.10;1.90;;;18.30;1.00;;;;;;5117883;27;20193;-71
2022/06/04 08:21:38;;;;;;;1.98;1.88;;;18.30;1.00;;;;;;5118973;27;20208;-71
2022/06/04 08:24:06;;;;;;;2.13;1.92;;;18.40;1.00;;;;;;5113805;28;20300;-71
2022/06/04 08:26:33;;;;;;;2.65;2.00;;;18.20;1.00;;;;;;5113788;28;20205;-72
2022/06/04 08:29:01;;;;;;;2.22;2.03;;;18.60;1.00;;;;;;5113578;28;20209;-71
2022/06/04 08:31:29;;;;;;;2.60;2.08;;;18.30;1.00;;;;;;5112182;28;20231;-71
2022/06/04 08:33:56;;;;;;;2.10;1.90;;;18.60;1.00;;;;;;5092844;28;20204;-71
2022/06/04 08:36:23;;;;;;;3.28;2.20;;;18.90;1.00;;;;;;5091756;28;20217;-71
2022/06/04 08:38:50;;;;;;;2.20;2.08;;;18.70;1.00;;;;;;5091052;28;20198;-72
2022/06/04 08:41:33;;;;;;;2.30;2.10;;;18.90;1.00;;;;;;5092329;28;20243;-71
2022/06/04 08:44:05;;;;;;;2.08;1.90;;;18.90;1.00;;;;;;5101146;28;20731;-71
2022/06/04 08:46:37;;;;;;;2.85;2.30;;;19.00;1.00;;;;;;5109483;28;20290;-71
2022/06/04 08:49:11;;;;;;;3.00;1.90;;;19.00;1.00;;;;;;5106125;28;20704;-71
2022/06/04 08:51:38;;;;;;;2.70;2.17;;;19.30;1.00;;;;;;5102254;28;20223;-71
2022/06/04 08:59:39;;;;;;;2.10;1.90;;;19.90;1.00;;;;;;5110931;28;20203;-71
2022/06/04 09:02:12;;;;;;;3.08;2.33;;;19.80;1.00;;;;;;5104343;28;20206;-71
2022/06/04 09:04:56;;;;;;;2.00;1.90;;;19.90;1.00;;;;;;5093678;28;20725;-71
2022/06/04 09:07:27;;;;;;;2.03;1.70;;;20.20;1.00;;;;;;5112037;28;20205;-72
2022/06/04 09:09:58;;;;;;;2.20;1.90;;;20.40;1.00;;;;;;5110526;28;20209;-72
2022/06/04 09:12:35;;;;;;;2.95;2.28;;;20.60;1.00;;;;;;5102821;28;20295;-71
2022/06/04 09:15:06;;;;;;;2.22;2.03;;;20.70;1.00;;;;;;5104066;28;20246;-71
2022/06/04 09:17:40;;;;;;;2.47;2.15;;;20.90;1.00;;;;;;5101630;28;20201;-71
2022/06/04 09:20:18;;;;;;;2.28;2.08;;;20.80;1.00;;;;;;5111023;28;20647;-71
2022/06/04 09:22:48;;;;;;;2.38;2.17;;;20.70;1.00;;;;;;5103045;28;20288;-71
2022/06/04 09:25:16;;;;;;;2.38;2.17;;;20.90;1.00;;;;;;5111144;28;20288;-72
2022/06/04 09:27:51;;;;;;;4.13;2.22;;;21.00;1.00;;;;;;5111491;27;20644;-71
2022/06/04 09:30:28;;;;;;;2.38;2.17;;;21.10;1.00;;;;;;5129706;27;20646;-71
2022/06/04 09:33:17;;;;;;;2.08;1.88;;;21.00;1.00;;;;;;5106426;27;20200;-72
2022/06/04 09:35:45;;;;;;;2.72;1.80;;;21.10;46.40;;;;;;5109417;28;20205;-71
2022/06/04 09:38:25;;;;;;;2.22;2.13;;;21.10;99.90;;;;;;5112104;28;20585;-72
2022/06/04 09:40:58;;;;;;;2.92;2.55;;;21.20;99.90;;;;;;5110831;28;20204;-72
2022/06/04 09:43:26;;;;;;;3.13;2.38;;;21.20;99.90;;;;;;5110327;28;20208;-72
2022/06/04 09:45:56;;;;;;;2.45;2.20;;;21.50;99.90;;;;;;5096379;28;20197;-72
2022/06/04 09:48:26;;;;;;;2.80;2.10;;;21.50;1.00;;;;;;5091436;28;20205;-72
2022/06/04 09:50:56;;;;;;;5.90;2.92;;;22.00;1.00;;;;;;5106616;28;20266;-72
2022/06/04 09:53:26;;;;;;;2.58;2.10;;;22.00;97.10;;;;;;5111808;28;20708;-72
2022/06/04 09:55:57;;;;;;;2.22;2.13;;;22.40;1.00;;;;;;5110900;28;20622;-72
2022/06/04 09:58:29;;;;;;;2.72;2.28;;;22.40;1.00;;;;;;5111067;28;20196;-72
2022/06/04 10:01:00;;;;;;;2.33;2.10;;;22.20;1.00;;;;;;5109988;28;20284;-72
2022/06/04 10:03:28;;;;;;;2.47;2.28;;;21.80;1.00;;;;;;5110240;28;20193;-72
2022/06/04 10:06:01;;;;;;;2.35;2.10;;;22.10;99.90;;;;;;5108251;28;20279;-72
2022/06/04 10:08:29;;;;;;;2.40;2.20;;;22.00;99.90;;;;;;5098031;28;20233;-72
2022/06/04 10:11:01;;;;;;;3.13;2.25;;;22.00;1.00;;;;;;5102429;28;20227;-73
2022/06/04 10:13:47;;;;;;;2.35;2.15;;;22.00;99.90;;;;;;5099294;28;20283;-72
2022/06/04 10:16:20;;;;;;;2.15;2.03;;;21.50;99.90;;;;;;5110761;28;20655;-72
2022/06/04 10:18:59;;;;;;;4.07;2.50;;;21.70;99.90;;;;;;5117704;27;20250;-72
2022/06/04 10:21:30;;;;;;;3.95;2.20;;;22.70;1.00;;;;;;5110405;28;20218;-72
2022/06/04 10:23:59;;;;;;;4.00;2.40;;;22.70;1.00;;;;;;5115286;28;20246;-72
2022/06/04 10:26:51;;;;;;;6.50;2.35;;;23.00;1.00;;;;;;5106699;28;20247;-72
2022/06/04 10:29:48;;;;;;;2.58;2.30;;;23.00;1.00;;;;;;5099658;28;20253;-73
2022/06/04 10:32:25;;;;;;;5.25;2.80;;;22.70;1.00;;;;;;5098292;28;20232;-72
2022/06/04 10:35:02;;;;;;;2.60;2.40;;;22.90;1.00;;;;;;5102777;28;20192;-72
2022/06/04 10:37:48;;;;;;;2.90;2.58;;;23.00;99.90;;;;;;5113965;28;20201;-73
2022/06/04 10:40:39;;;;;;;2.78;2.17;;;22.40;99.90;;;;;;5100492;28;20315;-72
2022/06/04 10:43:21;;;;;;;2.80;2.38;;;22.70;99.90;;;;;;5092902;28;20198;-72
2022/06/04 10:45:53;;;;;;;2.85;2.40;;;22.90;1.00;;;;;;5093237;28;20567;-72
2022/06/04 10:48:41;;;;;;;3.28;2.83;;;22.70;99.90;;;;;;5112095;28;20205;-72
2022/06/04 10:51:26;;;;;;;2.58;2.38;;;22.30;1.00;;;;;;5113018;27;20224;-72
2022/06/04 10:54:08;;;;;;;4.18;2.65;;;22.60;1.00;;;;;;5120051;27;20257;-72
2022/06/04 10:56:46;;;;;;;2.92;2.55;;;22.90;1.00;;;;;;5111254;28;20229;-72
2022/06/04 10:59:20;;;;;;;3.25;2.60;;;23.00;1.00;;;;;;5112832;28;20234;-72
2022/06/04 11:01:53;;;;;;;2.92;2.55;;;23.00;99.90;;;;;;5112861;27;20200;-73
2022/06/04 11:04:31;;;;;;;5.32;2.45;;;22.90;1.00;;;;;;5111870;28;20250;-73
2022/06/04 11:07:07;;;;;;;2.50;2.40;;;23.10;1.00;;;;;;5101429;28;20193;-73
2022/06/04 11:09:38;;;;;;;4.30;2.33;;;23.20;99.90;;;;;;5112582;28;20239;-72
2022/06/04 11:12:29;;;;;;;3.80;3.17;;;23.40;1.00;;;;;;5114097;28;20658;-72
2022/06/04 11:15:01;;;;;;;3.47;2.80;;;23.20;1.00;;;;;;5112526;28;20542;-72
2022/06/04 11:17:32;;;;;;;3.10;2.10;;;23.10;1.00;;;;;;5099529;28;20204;-72
2022/06/04 11:20:07;;;;;;;4.30;2.50;;;23.10;1.00;;;;;;5097442;28;20197;-72
2022/06/04 11:22:37;;;;;;;2.70;2.30;;;23.50;1.00;;;;;;5102724;28;20209;-72
2022/06/04 11:25:15;;;;;;;2.53;2.33;;;23.20;84.60;;;;;;5098891;28;20207;-72
2022/06/04 11:27:48;;;;;;;3.90;2.50;;;23.30;99.90;;;;;;5112756;28;20196;-72
2022/06/04 11:30:18;;;;;;;2.30;2.20;;;23.10;1.00;;;;;;5113240;28;20201;-72
2022/06/04 11:32:51;;;;;;;3.92;2.80;;;23.00;1.00;;;;;;5093107;28;20225;-72
2022/06/04 11:35:29;;;;;;;3.20;2.60;;;23.00;99.90;;;;;;5096166;28;20284;-72
2022/06/04 11:38:24;;;;;;;3.28;3.00;;;22.80;99.90;;;;;;5125260;27;20556;-72
2022/06/04 11:40:58;;;;;;;3.53;2.75;;;23.00;1.00;;;;;;5111706;27;20204;-72
2022/06/04 11:43:44;;;;;;;3.35;2.60;;;23.10;1.00;;;;;;5109611;28;20352;-72
2022/06/04 11:46:25;;;;;;;3.63;2.95;;;23.10;1.00;;;;;;5091535;28;20202;-72
2022/06/04 11:49:04;;;;;;;3.20;2.95;;;23.10;1.00;;;;;;5092569;28;20725;-72
2022/06/04 11:51:49;;;;;;;2.83;2.63;;;23.20;1.00;;;;;;5091832;28;20226;-72
2022/06/04 11:54:28;;;;;;;4.03;2.88;;;23.40;1.00;;;;;;5095717;28;20196;-72
2022/06/04 11:57:02;;;;;;;3.08;2.78;;;23.40;99.90;;;;;;5112957;28;20291;-72
2022/06/04 11:59:45;;;;;;;3.65;2.65;;;23.60;1.00;;;;;;5109080;28;20200;-72
2022/06/04 12:02:20;;;;;;;3.70;3.08;;;23.50;99.90;;;;;;5093273;28;20682;-72
2022/06/04 12:04:57;;;;;;;5.00;2.80;;;23.40;99.90;;;;;;5103590;28;20210;-72
2022/06/04 12:07:36;;;;;;;4.53;2.70;;;23.40;99.90;;;;;;5093019;28;20190;-72
2022/06/04 12:10:18;;;;;;;2.95;2.75;;;23.70;1.00;;;;;;5111022;28;20251;-72
2022/06/04 12:12:53;;;;;;;3.53;2.60;;;23.80;1.00;;;;;;5113056;28;20232;-72
2022/06/04 12:15:25;;;;;;;2.83;2.60;;;24.10;99.90;;;;;;5112985;28;20253;-72
2022/06/04 12:17:56;;;;;;;3.17;2.80;;;24.50;99.90;;;;;;5112289;28;20707;-72
2022/06/04 12:26:30;;;;;;;3.33;2.97;;;24.30;1.00;;;;;;5109211;28;20220;-72
2022/06/04 12:28:58;;;;;;;3.00;2.70;;;24.50;1.00;;;;;;5102621;28;20215;-72
2022/06/04 12:31:33;;;;;;;3.05;2.83;;;24.30;1.00;;;;;;5112063;27;20193;-72
2022/06/04 12:34:01;;;;;;;2.88;2.55;;;24.30;1.00;;;;;;5112121;28;20646;-72
2022/06/04 12:36:31;;;;;;;4.28;2.90;;;24.20;1.00;;;;;;5111831;28;20236;-72
2022/06/04 12:39:04;;;;;;;3.35;3.05;;;23.80;1.00;;;;;;5105775;28;20287;-72
2022/06/04 12:41:46;;;;;;;3.10;2.85;;;23.90;1.00;;;;;;5113156;28;20197;-72
2022/06/04 12:44:27;;;;;;;3.40;3.10;;;23.70;1.00;;;;;;5111572;28;20257;-72
2022/06/04 12:46:57;;;;;;;4.05;3.28;;;23.50;1.00;;;;;;5093167;28;20567;-72
2022/06/04 12:49:39;;;;;;;3.40;3.10;;;23.20;1.00;;;;;;5092742;28;20719;-72
2022/06/04 12:52:29;;;;;;;3.60;3.28;;;23.40;1.00;;;;;;5092627;28;20287;-72
2022/06/04 12:55:01;;;;;;;3.17;2.92;;;23.40;1.00;;;;;;5097163;28;20209;-72
2022/06/04 12:57:36;;;;;;;3.30;3.00;;;23.50;1.00;;;;;;5113077;28;20205;-72
2022/06/04 13:00:38;;;;;;;3.17;2.92;;;23.50;1.00;;;;;;5111874;28;20214;-72
2022/06/04 13:03:31;;;;;;;3.40;3.10;;;23.50;1.00;;;;;;5029618;28;20659;-72
2022/06/04 13:06:22;;;;;;;4.03;3.08;;;23.40;1.00;;;;;;5012885;28;20314;-72
2022/06/04 13:08:57;;;;;;;3.42;3.17;;;23.40;1.00;;;;;;5088788;28;20227;-72
2022/06/04 13:11:37;;;;;;;3.47;3.22;;;23.50;1.00;;;;;;5111857;28;20201;-72
2022/06/04 13:14:13;;;;;;;3.58;3.22;;;23.40;1.00;;;;;;5103446;28;20216;-72
2022/06/04 13:16:50;;;;;;;3.85;3.53;;;23.60;1.00;;;;;;5099173;28;20237;-72
2022/06/04 13:19:44;;;;;;;5.07;3.78;;;23.20;1.00;;;;;;5101086;28;20201;-72
2022/06/04 13:22:18;;;;;;;4.93;3.40;;;23.30;1.00;;;;;;5093302;28;20237;-72
2022/06/04 13:24:46;;;;;;;7.07;3.47;;;23.40;1.00;;;;;;5104117;28;20590;-72
2022/06/04 13:27:19;;;;;;;3.47;3.28;;;23.50;1.00;;;;;;5105066;28;20277;-72
2022/06/04 13:29:55;;;;;;;3.80;3.50;;;23.40;1.00;;;;;;5097281;28;20227;-72
2022/06/04 13:32:23;;;;;;;6.03;3.58;;;23.50;1.00;;;;;;5107236;28;20332;-72
2022/06/04 13:34:50;;;;;;;4.32;3.67;;;23.30;1.00;;;;;;5103841;28;20196;-72
2022/06/04 13:37:21;;;;;;;3.67;3.38;;;23.20;1.00;;;;;;5102694;28;20197;-72